sensor_id;sensor_type;location;lat;lon;timestamp;P1;durP1;ratioP1;P2;durP2;ratioP2
36575;SDS011;45700;50.930;5.168;2022-09-03T00:00:19;1.42;;;1.05;;
36575;SDS011;45700;50.930;5.168;2022-09-03T00:04:26;1.17;;;1.08;;
36575;SDS011;45700;50.930;5.168;2022-09-03T00:12:32;2.10;;;1.05;;
36575;SDS011;45700;50.930;5.168;2022-09-03T00:16:42;1.20;;;0.90;;
36575;SDS011;45700;50.930;5.168;2022-09-03T00:20:45;1.25;;;0.93;;
36575;SDS011;45700;50.930;5.168;2022-09-03T00:24:48;2.75;;;0.95;;
36575;SDS011;45700;50.930;5.168;2022-09-03T00:29:01;2.97;;;1.10;;
36575;SDS011;45700;50.930;5.168;2022-09-03T00:33:04;2.58;;;1.15;;
36575;SDS011;45700;50.930;5.168;2022-09-03T00:37:09;1.23;;;0.90;;
36575;SDS011;45700;50.930;5.168;2022-09-03T00:41:32;2.47;;;1.00;;
36575;SDS011;45700;50.930;5.168;2022-09-03T00:45:47;2.13;;;0.98;;
36575;SDS011;45700;50.930;5.168;2022-09-03T00:50:06;1.92;;;1.20;;
36575;SDS011;45700;50.930;5.168;2022-09-03T00:54:20;1.70;;;1.15;;
36575;SDS011;45700;50.930;5.168;2022-09-03T01:02:39;2.67;;;1.00;;
36575;SDS011;45700;50.930;5.168;2022-09-03T01:06:48;1.92;;;1.10;;
36575;SDS011;45700;50.930;5.168;2022-09-03T01:10:58;1.95;;;1.00;;
36575;SDS011;45700;50.930;5.168;2022-09-03T02:01:02;1.60;;;1.33;;
36575;SDS011;45700;50.930;5.168;2022-09-03T02:05:09;2.33;;;1.10;;
36575;SDS011;45700;50.930;5.168;2022-09-03T02:09:11;1.85;;;1.13;;
36575;SDS011;45700;50.930;5.168;2022-09-03T02:13:19;1.73;;;1.15;;
36575;SDS011;45700;50.930;5.168;2022-09-03T02:17:22;1.05;;;0.95;;
36575;SDS011;45700;50.930;5.168;2022-09-03T02:21:26;2.42;;;1.20;;
36575;SDS011;45700;50.930;5.168;2022-09-03T02:25:28;1.83;;;1.08;;
36575;SDS011;45700;50.930;5.168;2022-09-03T02:29:30;1.48;;;1.27;;
36575;SDS011;45700;50.930;5.168;2022-09-03T02:33:34;1.58;;;1.30;;
36575;SDS011;45700;50.930;5.168;2022-09-03T02:37:36;1.60;;;1.38;;
36575;SDS011;45700;50.930;5.168;2022-09-03T02:41:37;1.30;;;1.10;;
36575;SDS011;45700;50.930;5.168;2022-09-03T02:45:40;2.08;;;1.40;;
36575;SDS011;45700;50.930;5.168;2022-09-03T02:49:42;1.77;;;1.20;;
36575;SDS011;45700;50.930;5.168;2022-09-03T02:53:44;1.50;;;1.40;;
36575;SDS011;45700;50.930;5.168;2022-09-03T02:57:45;1.63;;;1.42;;
36575;SDS011;45700;50.930;5.168;2022-09-03T03:01:46;2.60;;;1.48;;
36575;SDS011;45700;50.930;5.168;2022-09-03T03:05:49;1.33;;;1.23;;
36575;SDS011;45700;50.930;5.168;2022-09-03T03:09:51;2.53;;;1.40;;
36575;SDS011;45700;50.930;5.168;2022-09-03T03:13:52;1.88;;;1.08;;
36575;SDS011;45700;50.930;5.168;2022-09-03T03:17:55;1.90;;;1.10;;
36575;SDS011;45700;50.930;5.168;2022-09-03T03:21:56;1.52;;;1.10;;
36575;SDS011;45700;50.930;5.168;2022-09-03T03:26:01;1.92;;;1.13;;
36575;SDS011;45700;50.930;5.168;2022-09-03T03:30:02;3.25;;;1.10;;
36575;SDS011;45700;50.930;5.168;2022-09-03T03:34:03;1.10;;;1.00;;
36575;SDS011;45700;50.930;5.168;2022-09-03T03:38:04;1.17;;;1.08;;
36575;SDS011;45700;50.930;5.168;2022-09-03T03:42:05;1.80;;;1.10;;
36575;SDS011;45700;50.930;5.168;2022-09-03T03:46:06;2.15;;;1.30;;
36575;SDS011;45700;50.930;5.168;2022-09-03T03:50:11;1.73;;;1.33;;
36575;SDS011;45700;50.930;5.168;2022-09-03T03:54:12;2.15;;;1.40;;
36575;SDS011;45700;50.930;5.168;2022-09-03T03:58:12;1.52;;;1.17;;
36575;SDS011;45700;50.930;5.168;2022-09-03T04:02:14;1.13;;;1.02;;
36575;SDS011;45700;50.930;5.168;2022-09-03T04:06:16;1.30;;;1.20;;
36575;SDS011;45700;50.930;5.168;2022-09-03T04:10:18;3.15;;;1.17;;
36575;SDS011;45700;50.930;5.168;2022-09-03T04:14:19;2.17;;;1.52;;
36575;SDS011;45700;50.930;5.168;2022-09-03T04:18:21;3.30;;;1.50;;
36575;SDS011;45700;50.930;5.168;2022-09-03T04:22:22;1.30;;;1.20;;
36575;SDS011;45700;50.930;5.168;2022-09-03T04:26:25;1.38;;;1.10;;
36575;SDS011;45700;50.930;5.168;2022-09-03T04:30:27;2.25;;;1.30;;
36575;SDS011;45700;50.930;5.168;2022-09-03T04:34:28;2.10;;;1.35;;
36575;SDS011;45700;50.930;5.168;2022-09-03T04:38:30;1.98;;;1.15;;
36575;SDS011;45700;50.930;5.168;2022-09-03T04:42:31;1.70;;;1.40;;
36575;SDS011;45700;50.930;5.168;2022-09-03T04:46:32;2.70;;;1.45;;
36575;SDS011;45700;50.930;5.168;2022-09-03T04:50:33;1.35;;;1.20;;
36575;SDS011;45700;50.930;5.168;2022-09-03T04:54:34;2.25;;;1.42;;
36575;SDS011;45700;50.930;5.168;2022-09-03T04:58:35;2.33;;;1.30;;
36575;SDS011;45700;50.930;5.168;2022-09-03T05:02:36;1.65;;;1.30;;
36575;SDS011;45700;50.930;5.168;2022-09-03T05:06:37;1.98;;;1.30;;
36575;SDS011;45700;50.930;5.168;2022-09-03T05:10:38;1.35;;;1.20;;
36575;SDS011;45700;50.930;5.168;2022-09-03T05:14:39;2.80;;;1.40;;
36575;SDS011;45700;50.930;5.168;2022-09-03T05:18:40;1.52;;;1.10;;
36575;SDS011;45700;50.930;5.168;2022-09-03T05:22:41;1.50;;;1.25;;
36575;SDS011;45700;50.930;5.168;2022-09-03T05:26:42;1.80;;;1.23;;
36575;SDS011;45700;50.930;5.168;2022-09-03T05:30:43;2.13;;;1.48;;
36575;SDS011;45700;50.930;5.168;2022-09-03T05:34:44;1.95;;;1.10;;
36575;SDS011;45700;50.930;5.168;2022-09-03T05:38:45;1.85;;;1.13;;
36575;SDS011;45700;50.930;5.168;2022-09-03T05:42:47;1.77;;;1.20;;
36575;SDS011;45700;50.930;5.168;2022-09-03T05:46:48;1.75;;;1.20;;
36575;SDS011;45700;50.930;5.168;2022-09-03T05:50:57;1.15;;;1.05;;
36575;SDS011;45700;50.930;5.168;2022-09-03T05:54:59;3.90;;;1.40;;
36575;SDS011;45700;50.930;5.168;2022-09-03T05:59:01;2.60;;;1.80;;
36575;SDS011;45700;50.930;5.168;2022-09-03T06:03:04;2.30;;;1.35;;
36575;SDS011;45700;50.930;5.168;2022-09-03T06:07:05;1.33;;;1.23;;
36575;SDS011;45700;50.930;5.168;2022-09-03T06:11:07;2.85;;;1.35;;
36575;SDS011;45700;50.930;5.168;2022-09-03T06:15:08;2.92;;;1.60;;
36575;SDS011;45700;50.930;5.168;2022-09-03T06:19:10;4.38;;;1.40;;
36575;SDS011;45700;50.930;5.168;2022-09-03T06:23:12;2.35;;;1.77;;
36575;SDS011;45700;50.930;5.168;2022-09-03T06:27:13;3.45;;;1.83;;
36575;SDS011;45700;50.930;5.168;2022-09-03T06:31:16;2.40;;;1.55;;
36575;SDS011;45700;50.930;5.168;2022-09-03T06:35:18;3.28;;;1.60;;
36575;SDS011;45700;50.930;5.168;2022-09-03T06:39:19;2.17;;;1.48;;
36575;SDS011;45700;50.930;5.168;2022-09-03T06:43:20;8.88;;;2.10;;
36575;SDS011;45700;50.930;5.168;2022-09-03T06:47:22;5.40;;;1.92;;
36575;SDS011;45700;50.930;5.168;2022-09-03T06:51:23;3.40;;;2.15;;
36575;SDS011;45700;50.930;5.168;2022-09-03T06:55:25;2.50;;;1.70;;
36575;SDS011;45700;50.930;5.168;2022-09-03T06:59:26;1.77;;;1.52;;
36575;SDS011;45700;50.930;5.168;2022-09-03T07:03:27;2.03;;;1.15;;
36575;SDS011;45700;50.930;5.168;2022-09-03T07:07:28;2.00;;;1.38;;
36575;SDS011;45700;50.930;5.168;2022-09-03T07:11:29;3.22;;;1.63;;
36575;SDS011;45700;50.930;5.168;2022-09-03T07:15:32;2.80;;;1.35;;
36575;SDS011;45700;50.930;5.168;2022-09-03T07:19:33;1.85;;;1.40;;
36575;SDS011;45700;50.930;5.168;2022-09-03T07:23:34;2.15;;;1.33;;
36575;SDS011;45700;50.930;5.168;2022-09-03T07:27:36;1.48;;;1.10;;
36575;SDS011;45700;50.930;5.168;2022-09-03T07:31:38;1.90;;;1.10;;
36575;SDS011;45700;50.930;5.168;2022-09-03T07:35:39;2.80;;;1.40;;
36575;SDS011;45700;50.930;5.168;2022-09-03T07:39:40;2.63;;;1.00;;
36575;SDS011;45700;50.930;5.168;2022-09-03T07:43:42;2.30;;;1.17;;
36575;SDS011;45700;50.930;5.168;2022-09-03T07:47:46;2.38;;;1.17;;
36575;SDS011;45700;50.930;5.168;2022-09-03T07:51:48;3.08;;;0.85;;
36575;SDS011;45700;50.930;5.168;2022-09-03T07:55:53;2.05;;;0.90;;
36575;SDS011;45700;50.930;5.168;2022-09-03T07:59:55;1.33;;;1.23;;
36575;SDS011;45700;50.930;5.168;2022-09-03T08:03:56;1.48;;;0.90;;
36575;SDS011;45700;50.930;5.168;2022-09-03T08:07:58;2.58;;;0.85;;
36575;SDS011;45700;50.930;5.168;2022-09-03T08:12:00;1.08;;;0.98;;
36575;SDS011;45700;50.930;5.168;2022-09-03T08:16:01;1.30;;;1.17;;
36575;SDS011;45700;50.930;5.168;2022-09-03T08:20:03;1.70;;;1.20;;
36575;SDS011;45700;50.930;5.168;2022-09-03T08:24:04;3.22;;;1.00;;
36575;SDS011;45700;50.930;5.168;2022-09-03T08:28:05;1.55;;;0.95;;
36575;SDS011;45700;50.930;5.168;2022-09-03T08:32:09;2.13;;;1.17;;
36575;SDS011;45700;50.930;5.168;2022-09-03T08:36:18;1.67;;;1.25;;
36575;SDS011;45700;50.930;5.168;2022-09-03T08:40:21;2.30;;;1.20;;
36575;SDS011;45700;50.930;5.168;2022-09-03T08:48:27;1.70;;;1.30;;
36575;SDS011;45700;50.930;5.168;2022-09-03T08:52:47;1.58;;;1.33;;
36575;SDS011;45700;50.930;5.168;2022-09-03T08:56:48;1.60;;;1.20;;
36575;SDS011;45700;50.930;5.168;2022-09-03T09:05:08;2.05;;;1.58;;
36575;SDS011;45700;50.930;5.168;2022-09-03T09:09:17;2.03;;;1.70;;
36575;SDS011;45700;50.930;5.168;2022-09-03T09:13:24;1.83;;;1.35;;
36575;SDS011;45700;50.930;5.168;2022-09-03T09:17:41;2.50;;;1.83;;
36575;SDS011;45700;50.930;5.168;2022-09-03T09:21:49;2.17;;;1.30;;
36575;SDS011;45700;50.930;5.168;2022-09-03T09:25:53;1.92;;;1.60;;
36575;SDS011;45700;50.930;5.168;2022-09-03T09:29:56;2.22;;;1.85;;
36575;SDS011;45700;50.930;5.168;2022-09-03T09:34:03;1.92;;;1.50;;
36575;SDS011;45700;50.930;5.168;2022-09-03T09:38:05;2.00;;;1.38;;
36575;SDS011;45700;50.930;5.168;2022-09-03T09:42:07;1.85;;;1.60;;
36575;SDS011;45700;50.930;5.168;2022-09-03T09:46:14;2.80;;;1.85;;
36575;SDS011;45700;50.930;5.168;2022-09-03T09:50:16;2.00;;;1.60;;
36575;SDS011;45700;50.930;5.168;2022-09-03T09:54:23;2.83;;;1.48;;
36575;SDS011;45700;50.930;5.168;2022-09-03T09:58:27;2.17;;;1.80;;
36575;SDS011;45700;50.930;5.168;2022-09-03T10:02:29;1.88;;;1.48;;
36575;SDS011;45700;50.930;5.168;2022-09-03T10:06:34;1.83;;;1.60;;
36575;SDS011;45700;50.930;5.168;2022-09-03T10:10:57;1.63;;;1.52;;
36575;SDS011;45700;50.930;5.168;2022-09-03T10:19:09;2.30;;;1.75;;
36575;SDS011;45700;50.930;5.168;2022-09-03T10:23:19;1.92;;;1.50;;
36575;SDS011;45700;50.930;5.168;2022-09-03T10:27:21;2.17;;;1.70;;
36575;SDS011;45700;50.930;5.168;2022-09-03T10:35:31;2.92;;;1.83;;
36575;SDS011;45700;50.930;5.168;2022-09-03T10:39:50;2.63;;;1.73;;
36575;SDS011;45700;50.930;5.168;2022-09-03T10:49:11;2.40;;;1.90;;
36575;SDS011;45700;50.930;5.168;2022-09-03T11:01:13;2.70;;;1.70;;
36575;SDS011;45700;50.930;5.168;2022-09-03T11:05:19;1.95;;;1.75;;
36575;SDS011;45700;50.930;5.168;2022-09-03T11:13:32;3.53;;;2.22;;
36575;SDS011;45700;50.930;5.168;2022-09-03T11:21:38;3.20;;;2.00;;
36575;SDS011;45700;50.930;5.168;2022-09-03T11:25:54;2.63;;;1.77;;
36575;SDS011;45700;50.930;5.168;2022-09-03T11:34:28;3.15;;;1.88;;
36575;SDS011;45700;50.930;5.168;2022-09-03T11:38:28;2.90;;;1.90;;
36575;SDS011;45700;50.930;5.168;2022-09-03T11:46:34;2.60;;;1.77;;
36575;SDS011;45700;50.930;5.168;2022-09-03T11:50:35;2.08;;;1.88;;
36575;SDS011;45700;50.930;5.168;2022-09-03T11:54:44;2.13;;;1.90;;
36575;SDS011;45700;50.930;5.168;2022-09-03T11:58:45;2.40;;;2.13;;
36575;SDS011;45700;50.930;5.168;2022-09-03T12:02:56;1.98;;;1.77;;
36575;SDS011;45700;50.930;5.168;2022-09-03T12:11:43;2.00;;;1.77;;
36575;SDS011;45700;50.930;5.168;2022-09-03T12:19:56;3.60;;;1.35;;
36575;SDS011;45700;50.930;5.168;2022-09-03T12:23:57;2.15;;;1.45;;
36575;SDS011;45700;50.930;5.168;2022-09-03T12:28:02;1.38;;;1.27;;
36575;SDS011;45700;50.930;5.168;2022-09-03T12:32:12;1.73;;;1.25;;
36575;SDS011;45700;50.930;5.168;2022-09-03T12:36:13;1.85;;;1.50;;
36575;SDS011;45700;50.930;5.168;2022-09-03T12:40:16;1.30;;;1.20;;
36575;SDS011;45700;50.930;5.168;2022-09-03T12:44:28;1.58;;;1.42;;
36575;SDS011;45700;50.930;5.168;2022-09-03T12:48:30;1.60;;;1.25;;
36575;SDS011;45700;50.930;5.168;2022-09-03T12:52:32;1.25;;;1.15;;
36575;SDS011;45700;50.930;5.168;2022-09-03T12:56:34;1.25;;;1.15;;
36575;SDS011;45700;50.930;5.168;2022-09-03T13:00:37;1.20;;;1.10;;
36575;SDS011;45700;50.930;5.168;2022-09-03T13:04:39;1.50;;;1.13;;
36575;SDS011;45700;50.930;5.168;2022-09-03T13:08:50;1.52;;;1.40;;
36575;SDS011;45700;50.930;5.168;2022-09-03T13:12:56;2.65;;;1.30;;
36575;SDS011;45700;50.930;5.168;2022-09-03T13:33:56;1.40;;;1.23;;
36575;SDS011;45700;50.930;5.168;2022-09-03T13:38:42;1.40;;;1.30;;
36575;SDS011;45700;50.930;5.168;2022-09-03T13:46:27;1.50;;;1.40;;
36575;SDS011;45700;50.930;5.168;2022-09-03T13:50:31;1.30;;;1.20;;
36575;SDS011;45700;50.930;5.168;2022-09-03T13:54:41;1.30;;;1.20;;
36575;SDS011;45700;50.930;5.168;2022-09-03T14:03:07;1.52;;;1.10;;
36575;SDS011;45700;50.930;5.168;2022-09-03T14:07:17;1.80;;;1.40;;
36575;SDS011;45700;50.930;5.168;2022-09-03T14:15:51;1.35;;;1.17;;
36575;SDS011;45700;50.930;5.168;2022-09-03T14:20:02;1.08;;;1.00;;
36575;SDS011;45700;50.930;5.168;2022-09-03T14:36:53;2.03;;;1.33;;
36575;SDS011;45700;50.930;5.168;2022-09-03T14:41:05;1.48;;;1.38;;
36575;SDS011;45700;50.930;5.168;2022-09-03T14:45:22;1.58;;;1.30;;
36575;SDS011;45700;50.930;5.168;2022-09-03T14:49:34;1.52;;;1.20;;
36575;SDS011;45700;50.930;5.168;2022-09-03T15:02:21;1.40;;;1.30;;
36575;SDS011;45700;50.930;5.168;2022-09-03T15:06:38;1.20;;;1.10;;
36575;SDS011;45700;50.930;5.168;2022-09-03T15:10:45;2.22;;;1.33;;
36575;SDS011;45700;50.930;5.168;2022-09-03T15:27:20;1.40;;;1.30;;
36575;SDS011;45700;50.930;5.168;2022-09-03T15:39:44;1.52;;;1.27;;
36575;SDS011;45700;50.930;5.168;2022-09-03T15:43:47;2.10;;;1.60;;
36575;SDS011;45700;50.930;5.168;2022-09-03T15:56:14;1.50;;;1.40;;
36575;SDS011;45700;50.930;5.168;2022-09-03T16:00:16;1.42;;;1.20;;
36575;SDS011;45700;50.930;5.168;2022-09-03T16:04:21;1.08;;;1.08;;
36575;SDS011;45700;50.930;5.168;2022-09-03T16:12:39;1.33;;;1.13;;
36575;SDS011;45700;50.930;5.168;2022-09-03T16:16:51;1.70;;;1.53;;
36575;SDS011;45700;50.930;5.168;2022-09-03T16:21:01;1.77;;;1.33;;
36575;SDS011;45700;50.930;5.168;2022-09-03T16:25:08;2.85;;;1.30;;
36575;SDS011;45700;50.930;5.168;2022-09-03T16:29:13;1.77;;;1.63;;
36575;SDS011;45700;50.930;5.168;2022-09-03T16:46:32;1.80;;;1.10;;
36575;SDS011;45700;50.930;5.168;2022-09-03T16:58:20;3.40;;;1.48;;
36575;SDS011;45700;50.930;5.168;2022-09-03T17:06:44;1.30;;;1.20;;
36575;SDS011;45700;50.930;5.168;2022-09-03T17:11:10;1.63;;;1.35;;
36575;SDS011;45700;50.930;5.168;2022-09-03T17:19:37;1.80;;;1.50;;
36575;SDS011;45700;50.930;5.168;2022-09-03T17:36:36;2.45;;;1.77;;
36575;SDS011;45700;50.930;5.168;2022-09-03T17:40:36;1.90;;;1.40;;
36575;SDS011;45700;50.930;5.168;2022-09-03T17:44:49;1.35;;;1.25;;
36575;SDS011;45700;50.930;5.168;2022-09-03T17:48:53;2.15;;;1.50;;
36575;SDS011;45700;50.930;5.168;2022-09-03T17:52:56;1.77;;;1.45;;
36575;SDS011;45700;50.930;5.168;2022-09-03T17:57:01;1.63;;;1.38;;
36575;SDS011;45700;50.930;5.168;2022-09-03T18:01:17;2.15;;;1.45;;
36575;SDS011;45700;50.930;5.168;2022-09-03T18:05:27;1.83;;;1.50;;
36575;SDS011;45700;50.930;5.168;2022-09-03T18:18:23;1.80;;;1.50;;
36575;SDS011;45700;50.930;5.168;2022-09-03T18:22:28;3.28;;;1.90;;
36575;SDS011;45700;50.930;5.168;2022-09-03T18:26:53;1.75;;;1.55;;
36575;SDS011;45700;50.930;5.168;2022-09-03T18:31:14;1.70;;;1.42;;
36575;SDS011;45700;50.930;5.168;2022-09-03T18:35:35;1.75;;;1.63;;
36575;SDS011;45700;50.930;5.168;2022-09-03T18:39:54;2.33;;;1.98;;
36575;SDS011;45700;50.930;5.168;2022-09-03T18:53:34;2.33;;;1.75;;
36575;SDS011;45700;50.930;5.168;2022-09-03T19:11:29;1.53;;;1.37;;
36575;SDS011;45700;50.930;5.168;2022-09-03T19:20:25;2.13;;;1.67;;
36575;SDS011;45700;50.930;5.168;2022-09-03T19:24:47;1.90;;;1.58;;
36575;SDS011;45700;50.930;5.168;2022-09-03T19:29:18;2.85;;;1.85;;
36575;SDS011;45700;50.930;5.168;2022-09-03T19:38:21;3.57;;;1.97;;
36575;SDS011;45700;50.930;5.168;2022-09-03T19:42:49;1.52;;;1.42;;
36575;SDS011;45700;50.930;5.168;2022-09-03T19:47:10;1.60;;;1.50;;
36575;SDS011;45700;50.930;5.168;2022-09-03T19:51:39;1.98;;;1.45;;
36575;SDS011;45700;50.930;5.168;2022-09-03T20:00:21;1.95;;;1.50;;
36575;SDS011;45700;50.930;5.168;2022-09-03T20:09:28;1.83;;;1.45;;
36575;SDS011;45700;50.930;5.168;2022-09-03T20:13:48;4.43;;;1.33;;
36575;SDS011;45700;50.930;5.168;2022-09-03T20:18:12;1.80;;;1.40;;
36575;SDS011;45700;50.930;5.168;2022-09-03T20:22:20;3.22;;;1.52;;
36575;SDS011;45700;50.930;5.168;2022-09-03T20:43:06;1.33;;;1.23;;
36575;SDS011;45700;50.930;5.168;2022-09-03T20:51:16;2.63;;;1.70;;
36575;SDS011;45700;50.930;5.168;2022-09-03T21:04:26;1.40;;;1.00;;
36575;SDS011;45700;50.930;5.168;2022-09-03T21:24:29;1.58;;;1.15;;
36575;SDS011;45700;50.930;5.168;2022-09-03T21:28:33;2.38;;;1.52;;
36575;SDS011;45700;50.930;5.168;2022-09-03T21:32:39;2.65;;;1.48;;
36575;SDS011;45700;50.930;5.168;2022-09-03T21:36:43;2.15;;;1.80;;
36575;SDS011;45700;50.930;5.168;2022-09-03T21:40:47;1.75;;;1.50;;
36575;SDS011;45700;50.930;5.168;2022-09-03T21:48:55;1.85;;;1.40;;
36575;SDS011;45700;50.930;5.168;2022-09-03T21:53:05;2.63;;;2.15;;
36575;SDS011;45700;50.930;5.168;2022-09-03T22:01:17;2.92;;;1.80;;
36575;SDS011;45700;50.930;5.168;2022-09-03T22:05:19;4.28;;;2.35;;
36575;SDS011;45700;50.930;5.168;2022-09-03T22:09:26;2.45;;;1.85;;
36575;SDS011;45700;50.930;5.168;2022-09-03T22:13:31;2.22;;;1.90;;
36575;SDS011;45700;50.930;5.168;2022-09-03T22:17:37;4.43;;;2.03;;
36575;SDS011;45700;50.930;5.168;2022-09-03T22:25:58;2.20;;;1.58;;
36575;SDS011;45700;50.930;5.168;2022-09-03T22:34:14;2.65;;;2.00;;
36575;SDS011;45700;50.930;5.168;2022-09-03T22:38:27;2.75;;;2.05;;
36575;SDS011;45700;50.930;5.168;2022-09-03T22:47:00;2.58;;;2.10;;
36575;SDS011;45700;50.930;5.168;2022-09-03T22:51:04;3.22;;;2.20;;
36575;SDS011;45700;50.930;5.168;2022-09-03T22:59:25;2.90;;;2.10;;
36575;SDS011;45700;50.930;5.168;2022-09-03T23:03:30;2.92;;;2.22;;
36575;SDS011;45700;50.930;5.168;2022-09-03T23:07:47;2.42;;;2.08;;
36575;SDS011;45700;50.930;5.168;2022-09-03T23:12:04;2.80;;;2.10;;
36575;SDS011;45700;50.930;5.168;2022-09-03T23:16:15;4.03;;;2.58;;
36575;SDS011;45700;50.930;5.168;2022-09-03T23:20:22;3.05;;;2.10;;
36575;SDS011;45700;50.930;5.168;2022-09-03T23:24:29;2.22;;;1.88;;
36575;SDS011;45700;50.930;5.168;2022-09-03T23:28:31;3.63;;;2.15;;
36575;SDS011;45700;50.930;5.168;2022-09-03T23:32:35;3.42;;;2.28;;
36575;SDS011;45700;50.930;5.168;2022-09-03T23:40:56;7.28;;;2.38;;
36575;SDS011;45700;50.930;5.168;2022-09-03T23:58:08;3.10;;;2.55;;
